Belle Isle Bank: Past 24 Hour Conditions

 

Port aux Basques

11:30 AM NDT 24 October 2014
This table is a summary of hourly weather conditions for the past 24 hours.
Date / Time
(NDT)
Wind(knots) Conditions Visibility(km) Pressure(kPa) Air tempC) Relative humidity(%) Dew pointC)
24 October 2014
11:30 E 21 gust 32 Light Rain 2 100.8 12 96 11
10:30 E 23 gust 30 Cloudy 15 100.9 12 95 11
9:30 E 24 gust 32 Light Rain 15 101.0 12 94 11
8:30 E 19 gust 26 Light Rain 15 101.1 11 84 9
7:30 E 16 Cloudy 15 101.1 12 63 5
6:30 E 16 gust 21 Cloudy 15 101.3 12 55 3
5:30 ENE 16 Cloudy 15 101.3 12 48 1
4:30 ENE 16 gust 21 Mainly Clear 15 101.4 11 45 0
3:30 ENE 15 Mainly Clear 15 101.5 10 49 0
2:30 ENE 12 Clear 15 101.6 9 53 0
1:30 ENE 13 Clear 15 101.8 9 65 3
0:30 NE 15 Clear 15 101.8 9 71 4
23 October 2014
23:30 ENE 17 Clear 15 101.9 8 77 4
22:30 ENE 12 Clear 15 102.0 8 84 5
21:30 ENE 13 Clear 15 102.1 7 87 5
20:30 ENE 13 Clear 15 102.1 7 87 5
19:30 ENE 15 Clear 15 102.2 8 84 5
18:30 E 13 gust 19 Clear 15 102.2 8 83 6
17:30 E 13 gust 18 Sunny 15 102.3 9 82 6
16:30 E 17 Mainly Sunny 15 102.3 10 79 7
15:30 E 18 Mainly Sunny 15 102.5 10 81 7
14:30 E 15 gust 20 Cloudy 15 102.6 10 81 7
13:30 E 15 gust 22 Cloudy 15 102.6 11 80 7
12:30 E 16 Mainly Sunny 15 102.7 10 77 7
11:30 E 16 Sunny 15 102.7 10 78 7
 
Map of Atlantic - Newfoundland marine weather areas Southwestern Grand Banks - 44138 Banquereau - 44139 Tail of the Bank - 44140 Nickerson Bank - 44251 Northeast Burgeo Bank - 44255 Blanc-Sablon Airport Cap Whittle Chevery Natashquan Airport Heath Point Miscou Island Grand Étang Ingonish Beach North Mountain St.Paul Island J.A. Douglas McCurdy Sydney Airport Charlottetown Airport East Point North Cape Argentia Bonavista Burgeo Cape Race Corner Brook Daniel's Harbour Englee Ferolle Point La Scie Port aux Basques Rocky Harbour Sagona Island St. Anthony Airport St. John's Int'l Airport St. Lawrence Stephenville Airport Twillingate Winterland Wreckhouse Cartwright Airport Mary's Harbour Grates Cove Pool's Island Marticot Island Long Pond Îles de la Madeleine Airport
Legend: buoyBuoy land stationLand Station